createdAt,value
2024-02-19T00:09:01.869Z,86.99
2024-02-19T00:24:02.591Z,87.38
2024-02-19T00:39:03.481Z,87.80
2024-02-19T00:54:03.949Z,87.93
2024-02-19T01:09:04.649Z,87.60
2024-02-19T01:24:05.385Z,87.19
2024-02-19T01:39:05.826Z,86.88
2024-02-19T01:54:06.760Z,87.20
2024-02-19T02:09:07.404Z,87.28
2024-02-19T02:24:07.917Z,86.74
2024-02-19T02:39:08.628Z,86.23
2024-02-19T02:54:09.355Z,86.03
2024-02-19T03:09:09.860Z,86.35
2024-02-19T03:24:10.898Z,86.82
2024-02-19T03:39:11.557Z,87.07
2024-02-19T03:54:14.172Z,86.99
2024-02-19T04:09:12.465Z,86.96
2024-02-19T04:24:13.331Z,87.00
2024-02-19T04:39:13.716Z,87.27
2024-02-19T04:54:14.643Z,87.29
2024-02-19T05:09:15.309Z,86.76
2024-02-19T05:24:15.788Z,86.23
2024-02-19T05:39:16.472Z,85.62
2024-02-19T05:54:17.238Z,85.85
2024-02-19T06:09:17.620Z,86.71
2024-02-19T06:24:18.521Z,87.47
2024-02-19T06:39:19.203Z,87.23
2024-02-19T06:54:19.688Z,86.92
2024-02-19T07:09:20.364Z,86.55
2024-02-19T07:24:21.114Z,85.59
2024-02-19T07:39:21.739Z,86.06
2024-02-19T07:54:21.948Z,86.68
2024-02-19T08:09:22.412Z,85.62
2024-02-19T08:24:23.120Z,84.99
2024-02-19T08:39:23.844Z,83.73
2024-02-19T08:54:24.493Z,82.28
2024-02-19T09:09:24.871Z,81.32
2024-02-19T09:24:25.340Z,79.47
2024-02-19T09:39:26.051Z,75.71
2024-02-19T09:54:26.737Z,71.27
2024-02-19T10:09:27.103Z,70.55
2024-02-19T10:24:27.769Z,70.27
2024-02-19T10:39:28.559Z,67.58
2024-02-19T10:54:30.990Z,68.90
2024-02-19T11:09:30.619Z,68.83
2024-02-19T11:24:30.034Z,68.63
2024-02-19T11:39:30.707Z,68.39
2024-02-19T11:54:31.419Z,67.78
2024-02-19T12:09:31.871Z,68.58
2024-02-19T12:24:32.626Z,68.33
2024-02-19T12:39:33.337Z,67.97
2024-02-19T12:54:33.759Z,69.68
2024-02-19T13:09:34.637Z,72.71
2024-02-19T13:24:35.346Z,72.38
2024-02-19T13:39:35.843Z,72.27
2024-02-19T13:54:36.524Z,68.35
2024-02-19T14:09:37.228Z,67.28
2024-02-19T14:24:37.682Z,66.81
2024-02-19T14:39:38.535Z,66.25
2024-02-19T14:54:39.287Z,66.27
2024-02-19T15:09:39.731Z,66.64
2024-02-19T15:24:40.560Z,67.51
2024-02-19T15:39:41.232Z,68.22
2024-02-19T15:54:41.682Z,68.01
2024-02-19T16:09:42.554Z,67.60
2024-02-19T16:24:43.349Z,67.85
2024-02-19T16:39:43.794Z,68.50
2024-02-19T16:54:44.895Z,68.61
2024-02-19T17:09:45.184Z,68.95
2024-02-19T17:24:45.619Z,68.87
2024-02-19T17:39:46.344Z,69.97
2024-02-19T17:54:47.115Z,69.46
2024-02-19T18:09:47.576Z,68.23
2024-02-19T18:24:48.434Z,68.43
2024-02-19T18:39:49.233Z,69.99
2024-02-19T18:54:49.912Z,69.61
2024-02-19T19:09:50.114Z,70.57
2024-02-19T19:24:50.542Z,73.44
2024-02-19T19:39:51.250Z,72.90
2024-02-19T19:54:53.479Z,73.05
2024-02-19T20:09:52.598Z,73.50
2024-02-19T20:24:53.515Z,73.84
2024-02-19T20:39:54.234Z,74.51
2024-02-19T20:54:54.518Z,78.33
2024-02-19T21:09:54.921Z,80.89
2024-02-19T21:24:55.664Z,80.32
2024-02-19T21:39:56.398Z,79.80
2024-02-19T21:54:57.096Z,79.70
2024-02-19T22:09:57.305Z,79.42
2024-02-19T22:24:57.787Z,79.34
2024-02-19T22:39:58.595Z,79.84
2024-02-19T22:54:59.337Z,80.43
2024-02-19T23:10:00.022Z,83.40
2024-02-19T23:25:00.371Z,85.91
2024-02-19T23:40:01.100Z,86.10
2024-02-19T23:55:01.689Z,86.32
